sensor_id;sensor_type;location;lat;lon;timestamp;P1;durP1;ratioP1;P2;durP2;ratioP2
57087;SDS011;42965;52.846;6.614;2022-12-29T00:01:40;10.00;;;9.10;;
57087;SDS011;42965;52.846;6.614;2022-12-29T00:04:06;9.27;;;8.38;;
57087;SDS011;42965;52.846;6.614;2022-12-29T00:06:35;9.63;;;8.73;;
57087;SDS011;42965;52.846;6.614;2022-12-29T00:09:01;9.13;;;8.15;;
57087;SDS011;42965;52.846;6.614;2022-12-29T00:11:27;10.65;;;9.65;;
57087;SDS011;42965;52.846;6.614;2022-12-29T00:13:54;9.70;;;8.75;;
57087;SDS011;42965;52.846;6.614;2022-12-29T00:16:43;8.90;;;8.00;;
57087;SDS011;42965;52.846;6.614;2022-12-29T00:19:10;9.13;;;8.32;;
57087;SDS011;42965;52.846;6.614;2022-12-29T00:21:56;8.80;;;7.90;;
57087;SDS011;42965;52.846;6.614;2022-12-29T00:24:43;9.93;;;8.93;;
57087;SDS011;42965;52.846;6.614;2022-12-29T00:27:29;9.68;;;8.70;;
57087;SDS011;42965;52.846;6.614;2022-12-29T00:30:19;10.93;;;8.50;;
57087;SDS011;42965;52.846;6.614;2022-12-29T00:33:12;8.73;;;7.80;;
57087;SDS011;42965;52.846;6.614;2022-12-29T00:36:03;10.57;;;7.82;;
57087;SDS011;42965;52.846;6.614;2022-12-29T00:38:37;8.50;;;7.65;;
57087;SDS011;42965;52.846;6.614;2022-12-29T00:41:25;8.57;;;7.78;;
57087;SDS011;42965;52.846;6.614;2022-12-29T00:44:10;8.95;;;8.05;;
57087;SDS011;42965;52.846;6.614;2022-12-29T00:46:40;7.93;;;7.13;;
57087;SDS011;42965;52.846;6.614;2022-12-29T00:49:08;7.95;;;7.15;;
57087;SDS011;42965;52.846;6.614;2022-12-29T00:51:57;7.80;;;6.88;;
57087;SDS011;42965;52.846;6.614;2022-12-29T00:54:36;8.68;;;7.00;;
57087;SDS011;42965;52.846;6.614;2022-12-29T00:57:05;8.00;;;6.82;;
57087;SDS011;42965;52.846;6.614;2022-12-29T00:59:34;7.50;;;6.72;;
57087;SDS011;42965;52.846;6.614;2022-12-29T01:02:01;7.10;;;6.40;;
57087;SDS011;42965;52.846;6.614;2022-12-29T01:04:28;8.80;;;6.70;;
57087;SDS011;42965;52.846;6.614;2022-12-29T01:07:02;7.93;;;5.93;;
57087;SDS011;42965;52.846;6.614;2022-12-29T01:09:29;7.45;;;5.88;;
57087;SDS011;42965;52.846;6.614;2022-12-29T01:12:15;6.88;;;6.07;;
57087;SDS011;42965;52.846;6.614;2022-12-29T01:15:04;7.20;;;6.00;;
57087;SDS011;42965;52.846;6.614;2022-12-29T01:17:31;8.40;;;5.93;;
57087;SDS011;42965;52.846;6.614;2022-12-29T01:19:57;5.97;;;5.38;;
57087;SDS011;42965;52.846;6.614;2022-12-29T01:22:23;6.15;;;5.55;;
57087;SDS011;42965;52.846;6.614;2022-12-29T01:24:49;7.40;;;5.35;;
57087;SDS011;42965;52.846;6.614;2022-12-29T01:27:16;5.90;;;4.70;;
57087;SDS011;42965;52.846;6.614;2022-12-29T01:29:42;6.20;;;5.38;;
57087;SDS011;42965;52.846;6.614;2022-12-29T01:32:09;6.38;;;4.93;;
57087;SDS011;42965;52.846;6.614;2022-12-29T01:34:40;6.35;;;5.65;;
57087;SDS011;42965;52.846;6.614;2022-12-29T01:37:07;5.75;;;4.95;;
57087;SDS011;42965;52.846;6.614;2022-12-29T01:39:34;7.60;;;4.80;;
57087;SDS011;42965;52.846;6.614;2022-12-29T01:42:00;7.00;;;4.95;;
57087;SDS011;42965;52.846;6.614;2022-12-29T01:44:46;5.70;;;4.85;;
57087;SDS011;42965;52.846;6.614;2022-12-29T01:49:50;6.82;;;4.78;;
57087;SDS011;42965;52.846;6.614;2022-12-29T01:52:19;6.15;;;4.95;;
57087;SDS011;42965;52.846;6.614;2022-12-29T01:54:49;5.82;;;4.63;;
57087;SDS011;42965;52.846;6.614;2022-12-29T01:57:23;5.70;;;5.00;;
57087;SDS011;42965;52.846;6.614;2022-12-29T02:00:02;5.93;;;4.53;;
57087;SDS011;42965;52.846;6.614;2022-12-29T02:02:44;5.22;;;4.25;;
57087;SDS011;42965;52.846;6.614;2022-12-29T02:05:34;8.15;;;4.97;;
57087;SDS011;42965;52.846;6.614;2022-12-29T02:08:12;7.28;;;3.95;;
57087;SDS011;42965;52.846;6.614;2022-12-29T02:10:39;4.55;;;3.97;;
57087;SDS011;42965;52.846;6.614;2022-12-29T02:13:07;5.13;;;4.00;;
57087;SDS011;42965;52.846;6.614;2022-12-29T02:32:51;6.25;;;4.38;;
57087;SDS011;42965;52.846;6.614;2022-12-29T02:35:28;5.30;;;4.55;;
57087;SDS011;42965;52.846;6.614;2022-12-29T02:41:34;9.82;;;4.55;;
57087;SDS011;42965;52.846;6.614;2022-12-29T02:44:16;7.20;;;4.90;;
57087;SDS011;42965;52.846;6.614;2022-12-29T02:52:20;5.93;;;4.53;;
57087;SDS011;42965;52.846;6.614;2022-12-29T02:54:53;5.28;;;4.50;;
57087;SDS011;42965;52.846;6.614;2022-12-29T02:59:47;4.30;;;3.35;;
57087;SDS011;42965;52.846;6.614;2022-12-29T03:11:08;4.80;;;3.42;;
57087;SDS011;42965;52.846;6.614;2022-12-29T03:14:02;3.97;;;3.45;;
57087;SDS011;42965;52.846;6.614;2022-12-29T03:16:48;5.20;;;3.47;;
57087;SDS011;42965;52.846;6.614;2022-12-29T03:19:35;3.88;;;2.95;;
57087;SDS011;42965;52.846;6.614;2022-12-29T03:22:10;4.40;;;2.75;;
57087;SDS011;42965;52.846;6.614;2022-12-29T03:24:59;4.50;;;2.72;;
57087;SDS011;42965;52.846;6.614;2022-12-29T03:27:34;4.97;;;2.63;;
57087;SDS011;42965;52.846;6.614;2022-12-29T03:30:08;3.08;;;2.35;;
57087;SDS011;42965;52.846;6.614;2022-12-29T03:32:42;4.20;;;2.70;;
57087;SDS011;42965;52.846;6.614;2022-12-29T03:35:16;3.50;;;2.22;;
57087;SDS011;42965;52.846;6.614;2022-12-29T03:37:58;3.63;;;2.50;;
57087;SDS011;42965;52.846;6.614;2022-12-29T03:40:35;3.53;;;2.45;;
57087;SDS011;42965;52.846;6.614;2022-12-29T03:43:04;3.08;;;1.98;;
57087;SDS011;42965;52.846;6.614;2022-12-29T03:45:34;4.15;;;1.90;;
57087;SDS011;42965;52.846;6.614;2022-12-29T03:48:01;5.50;;;2.20;;
57087;SDS011;42965;52.846;6.614;2022-12-29T03:50:28;2.25;;;1.92;;
57087;SDS011;42965;52.846;6.614;2022-12-29T03:52:54;4.38;;;2.33;;
57087;SDS011;42965;52.846;6.614;2022-12-29T03:55:21;4.72;;;1.98;;
57087;SDS011;42965;52.846;6.614;2022-12-29T03:57:48;4.45;;;2.22;;
57087;SDS011;42965;52.846;6.614;2022-12-29T04:00:20;6.47;;;2.78;;
57087;SDS011;42965;52.846;6.614;2022-12-29T04:02:49;8.80;;;2.55;;
57087;SDS011;42965;52.846;6.614;2022-12-29T04:05:19;7.13;;;2.10;;
57087;SDS011;42965;52.846;6.614;2022-12-29T04:07:48;5.50;;;2.15;;
57087;SDS011;42965;52.846;6.614;2022-12-29T04:10:14;5.55;;;2.65;;
57087;SDS011;42965;52.846;6.614;2022-12-29T04:12:41;6.13;;;2.25;;
57087;SDS011;42965;52.846;6.614;2022-12-29T04:15:08;4.40;;;2.00;;
57087;SDS011;42965;52.846;6.614;2022-12-29T04:17:35;6.88;;;1.65;;
57087;SDS011;42965;52.846;6.614;2022-12-29T04:20:03;4.63;;;1.40;;
57087;SDS011;42965;52.846;6.614;2022-12-29T04:22:49;5.68;;;1.48;;
57087;SDS011;42965;52.846;6.614;2022-12-29T04:25:25;3.40;;;1.42;;
57087;SDS011;42965;52.846;6.614;2022-12-29T04:27:52;3.45;;;1.60;;
57087;SDS011;42965;52.846;6.614;2022-12-29T04:30:39;5.65;;;1.88;;
57087;SDS011;42965;52.846;6.614;2022-12-29T04:33:13;7.40;;;1.98;;
57087;SDS011;42965;52.846;6.614;2022-12-29T04:35:42;7.25;;;2.15;;
57087;SDS011;42965;52.846;6.614;2022-12-29T04:38:09;4.88;;;2.30;;
57087;SDS011;42965;52.846;6.614;2022-12-29T04:40:37;8.43;;;2.67;;
57087;SDS011;42965;52.846;6.614;2022-12-29T04:43:07;6.57;;;2.23;;
57087;SDS011;42965;52.846;6.614;2022-12-29T04:45:43;6.22;;;1.80;;
57087;SDS011;42965;52.846;6.614;2022-12-29T04:48:23;6.88;;;2.40;;
57087;SDS011;42965;52.846;6.614;2022-12-29T04:51:19;7.60;;;2.00;;
57087;SDS011;42965;52.846;6.614;2022-12-29T04:53:46;7.07;;;1.60;;
57087;SDS011;42965;52.846;6.614;2022-12-29T04:56:12;5.82;;;1.40;;
57087;SDS011;42965;52.846;6.614;2022-12-29T04:58:38;11.05;;;2.25;;
57087;SDS011;42965;52.846;6.614;2022-12-29T05:01:04;9.05;;;2.40;;
57087;SDS011;42965;52.846;6.614;2022-12-29T05:03:31;6.32;;;1.85;;
57087;SDS011;42965;52.846;6.614;2022-12-29T05:05:58;6.88;;;1.67;;
57087;SDS011;42965;52.846;6.614;2022-12-29T05:08:24;8.50;;;2.33;;
57087;SDS011;42965;52.846;6.614;2022-12-29T05:10:51;7.97;;;1.80;;
57087;SDS011;42965;52.846;6.614;2022-12-29T05:13:18;5.85;;;1.67;;
57087;SDS011;42965;52.846;6.614;2022-12-29T05:15:49;8.10;;;2.72;;
57087;SDS011;42965;52.846;6.614;2022-12-29T05:18:16;11.52;;;2.03;;
57087;SDS011;42965;52.846;6.614;2022-12-29T05:20:43;13.00;;;2.17;;
57087;SDS011;42965;52.846;6.614;2022-12-29T05:23:14;9.03;;;2.00;;
57087;SDS011;42965;52.846;6.614;2022-12-29T05:25:42;7.97;;;1.83;;
57087;SDS011;42965;52.846;6.614;2022-12-29T05:28:37;7.40;;;1.67;;
57087;SDS011;42965;52.846;6.614;2022-12-29T05:31:10;9.23;;;1.90;;
57087;SDS011;42965;52.846;6.614;2022-12-29T05:33:37;6.22;;;1.33;;
57087;SDS011;42965;52.846;6.614;2022-12-29T05:36:05;8.68;;;2.00;;
57087;SDS011;42965;52.846;6.614;2022-12-29T05:38:36;7.47;;;1.95;;
57087;SDS011;42965;52.846;6.614;2022-12-29T05:41:03;4.85;;;1.75;;
57087;SDS011;42965;52.846;6.614;2022-12-29T05:43:58;4.78;;;1.60;;
57087;SDS011;42965;52.846;6.614;2022-12-29T05:46:49;9.40;;;2.08;;
57087;SDS011;42965;52.846;6.614;2022-12-29T05:49:25;7.30;;;1.60;;
57087;SDS011;42965;52.846;6.614;2022-12-29T05:51:58;5.85;;;1.70;;
57087;SDS011;42965;52.846;6.614;2022-12-29T05:54:24;5.65;;;1.98;;
57087;SDS011;42965;52.846;6.614;2022-12-29T05:56:55;8.15;;;1.98;;
57087;SDS011;42965;52.846;6.614;2022-12-29T05:59:21;5.88;;;1.58;;
57087;SDS011;42965;52.846;6.614;2022-12-29T06:01:48;8.30;;;1.90;;
57087;SDS011;42965;52.846;6.614;2022-12-29T06:04:15;8.13;;;1.90;;
57087;SDS011;42965;52.846;6.614;2022-12-29T06:06:41;7.28;;;1.80;;
57087;SDS011;42965;52.846;6.614;2022-12-29T06:09:15;8.85;;;1.77;;
57087;SDS011;42965;52.846;6.614;2022-12-29T06:11:41;6.60;;;2.30;;
57087;SDS011;42965;52.846;6.614;2022-12-29T06:14:08;8.93;;;1.90;;
57087;SDS011;42965;52.846;6.614;2022-12-29T06:16:35;8.07;;;1.77;;
57087;SDS011;42965;52.846;6.614;2022-12-29T06:19:04;7.20;;;2.13;;
57087;SDS011;42965;52.846;6.614;2022-12-29T06:21:31;6.95;;;1.58;;
57087;SDS011;42965;52.846;6.614;2022-12-29T06:24:00;7.68;;;2.10;;
57087;SDS011;42965;52.846;6.614;2022-12-29T06:26:26;7.75;;;1.67;;
57087;SDS011;42965;52.846;6.614;2022-12-29T06:28:52;9.70;;;2.00;;
57087;SDS011;42965;52.846;6.614;2022-12-29T06:31:19;11.80;;;2.22;;
57087;SDS011;42965;52.846;6.614;2022-12-29T06:34:06;8.40;;;1.88;;
57087;SDS011;42965;52.846;6.614;2022-12-29T06:36:52;7.03;;;1.98;;
57087;SDS011;42965;52.846;6.614;2022-12-29T06:39:38;10.45;;;2.20;;
57087;SDS011;42965;52.846;6.614;2022-12-29T06:42:28;9.77;;;2.10;;
57087;SDS011;42965;52.846;6.614;2022-12-29T06:45:35;11.30;;;1.92;;
57087;SDS011;42965;52.846;6.614;2022-12-29T06:48:24;11.85;;;1.95;;
57087;SDS011;42965;52.846;6.614;2022-12-29T06:51:00;12.13;;;2.30;;
57087;SDS011;42965;52.846;6.614;2022-12-29T06:53:26;8.10;;;1.95;;
57087;SDS011;42965;52.846;6.614;2022-12-29T06:55:53;7.90;;;1.70;;
57087;SDS011;42965;52.846;6.614;2022-12-29T06:58:19;8.35;;;2.65;;
57087;SDS011;42965;52.846;6.614;2022-12-29T07:00:46;9.27;;;2.00;;
57087;SDS011;42965;52.846;6.614;2022-12-29T07:03:13;7.75;;;2.10;;
57087;SDS011;42965;52.846;6.614;2022-12-29T07:05:41;11.43;;;1.85;;
57087;SDS011;42965;52.846;6.614;2022-12-29T07:08:07;10.68;;;2.28;;
57087;SDS011;42965;52.846;6.614;2022-12-29T07:10:37;8.57;;;2.22;;
57087;SDS011;42965;52.846;6.614;2022-12-29T07:13:07;10.32;;;2.55;;
57087;SDS011;42965;52.846;6.614;2022-12-29T07:15:48;7.72;;;2.20;;
57087;SDS011;42965;52.846;6.614;2022-12-29T07:18:15;10.73;;;2.13;;
57087;SDS011;42965;52.846;6.614;2022-12-29T07:20:41;10.57;;;2.63;;
57087;SDS011;42965;52.846;6.614;2022-12-29T07:23:11;8.18;;;2.15;;
57087;SDS011;42965;52.846;6.614;2022-12-29T07:25:38;12.52;;;2.33;;
57087;SDS011;42965;52.846;6.614;2022-12-29T07:28:12;6.88;;;2.05;;
57087;SDS011;42965;52.846;6.614;2022-12-29T07:30:38;11.88;;;2.28;;
57087;SDS011;42965;52.846;6.614;2022-12-29T07:33:05;8.80;;;1.80;;
57087;SDS011;42965;52.846;6.614;2022-12-29T07:35:33;16.70;;;3.70;;
57087;SDS011;42965;52.846;6.614;2022-12-29T07:37:59;10.27;;;2.35;;
57087;SDS011;42965;52.846;6.614;2022-12-29T07:40:26;13.93;;;2.35;;
57087;SDS011;42965;52.846;6.614;2022-12-29T07:42:52;10.98;;;1.75;;
57087;SDS011;42965;52.846;6.614;2022-12-29T07:45:29;11.32;;;2.60;;
57087;SDS011;42965;52.846;6.614;2022-12-29T07:48:07;10.98;;;2.40;;
57087;SDS011;42965;52.846;6.614;2022-12-29T07:50:34;11.63;;;2.17;;
57087;SDS011;42965;52.846;6.614;2022-12-29T07:53:01;13.60;;;2.40;;
57087;SDS011;42965;52.846;6.614;2022-12-29T07:55:28;10.50;;;2.20;;
57087;SDS011;42965;52.846;6.614;2022-12-29T07:57:55;10.18;;;2.28;;
57087;SDS011;42965;52.846;6.614;2022-12-29T08:00:22;10.45;;;2.60;;
57087;SDS011;42965;52.846;6.614;2022-12-29T08:02:49;10.90;;;2.90;;
57087;SDS011;42965;52.846;6.614;2022-12-29T08:05:15;10.85;;;2.67;;
57087;SDS011;42965;52.846;6.614;2022-12-29T08:07:42;11.93;;;2.67;;
57087;SDS011;42965;52.846;6.614;2022-12-29T08:10:10;13.52;;;2.42;;
57087;SDS011;42965;52.846;6.614;2022-12-29T08:12:41;20.13;;;3.35;;
57087;SDS011;42965;52.846;6.614;2022-12-29T08:15:10;13.93;;;2.58;;
57087;SDS011;42965;52.846;6.614;2022-12-29T08:17:38;11.95;;;2.50;;
57087;SDS011;42965;52.846;6.614;2022-12-29T08:20:04;13.63;;;2.83;;
57087;SDS011;42965;52.846;6.614;2022-12-29T08:22:35;12.68;;;3.47;;
57087;SDS011;42965;52.846;6.614;2022-12-29T08:25:01;17.35;;;2.67;;
57087;SDS011;42965;52.846;6.614;2022-12-29T08:27:33;12.77;;;2.38;;
57087;SDS011;42965;52.846;6.614;2022-12-29T08:29:59;10.68;;;2.55;;
57087;SDS011;42965;52.846;6.614;2022-12-29T08:32:26;17.13;;;3.72;;
57087;SDS011;42965;52.846;6.614;2022-12-29T08:34:53;12.32;;;2.13;;
57087;SDS011;42965;52.846;6.614;2022-12-29T08:37:21;13.93;;;3.28;;
57087;SDS011;42965;52.846;6.614;2022-12-29T08:39:47;12.48;;;3.05;;
57087;SDS011;42965;52.846;6.614;2022-12-29T08:42:14;13.85;;;2.97;;
57087;SDS011;42965;52.846;6.614;2022-12-29T08:44:43;12.82;;;2.53;;
57087;SDS011;42965;52.846;6.614;2022-12-29T08:47:09;11.88;;;2.47;;
57087;SDS011;42965;52.846;6.614;2022-12-29T08:49:37;13.52;;;2.97;;
57087;SDS011;42965;52.846;6.614;2022-12-29T08:52:03;16.30;;;3.83;;
57087;SDS011;42965;52.846;6.614;2022-12-29T08:54:30;12.23;;;2.72;;
57087;SDS011;42965;52.846;6.614;2022-12-29T08:56:56;9.70;;;3.08;;
57087;SDS011;42965;52.846;6.614;2022-12-29T08:59:33;15.95;;;3.20;;
57087;SDS011;42965;52.846;6.614;2022-12-29T09:02:02;9.10;;;2.40;;
57087;SDS011;42965;52.846;6.614;2022-12-29T09:04:28;12.40;;;2.33;;
57087;SDS011;42965;52.846;6.614;2022-12-29T09:06:54;9.48;;;2.20;;
57087;SDS011;42965;52.846;6.614;2022-12-29T09:09:21;11.77;;;2.58;;
57087;SDS011;42965;52.846;6.614;2022-12-29T09:11:48;14.13;;;2.58;;
57087;SDS011;42965;52.846;6.614;2022-12-29T09:14:29;15.07;;;2.30;;
57087;SDS011;42965;52.846;6.614;2022-12-29T09:17:02;14.50;;;2.75;;
57087;SDS011;42965;52.846;6.614;2022-12-29T09:19:46;10.73;;;2.63;;
57087;SDS011;42965;52.846;6.614;2022-12-29T09:22:13;14.45;;;3.05;;
57087;SDS011;42965;52.846;6.614;2022-12-29T09:24:43;12.93;;;3.33;;
57087;SDS011;42965;52.846;6.614;2022-12-29T09:27:10;13.98;;;2.78;;
57087;SDS011;42965;52.846;6.614;2022-12-29T09:29:37;9.95;;;2.67;;
57087;SDS011;42965;52.846;6.614;2022-12-29T09:34:37;14.98;;;3.08;;
57087;SDS011;42965;52.846;6.614;2022-12-29T09:37:04;10.80;;;2.67;;
57087;SDS011;42965;52.846;6.614;2022-12-29T09:39:31;11.32;;;2.83;;
57087;SDS011;42965;52.846;6.614;2022-12-29T09:42:05;11.65;;;2.70;;
57087;SDS011;42965;52.846;6.614;2022-12-29T09:47:22;12.15;;;2.78;;
57087;SDS011;42965;52.846;6.614;2022-12-29T09:52:44;9.63;;;2.60;;
57087;SDS011;42965;52.846;6.614;2022-12-29T09:55:22;12.77;;;2.38;;
57087;SDS011;42965;52.846;6.614;2022-12-29T09:57:56;9.98;;;2.25;;
57087;SDS011;42965;52.846;6.614;2022-12-29T10:03:19;12.70;;;2.97;;
57087;SDS011;42965;52.846;6.614;2022-12-29T10:11:27;17.95;;;3.28;;
57087;SDS011;42965;52.846;6.614;2022-12-29T10:14:15;14.05;;;2.47;;
57087;SDS011;42965;52.846;6.614;2022-12-29T10:25:00;12.55;;;2.85;;
57087;SDS011;42965;52.846;6.614;2022-12-29T10:27:41;13.57;;;2.60;;
57087;SDS011;42965;52.846;6.614;2022-12-29T10:30:11;10.38;;;3.00;;
57087;SDS011;42965;52.846;6.614;2022-12-29T10:32:44;12.77;;;2.90;;
57087;SDS011;42965;52.846;6.614;2022-12-29T10:35:19;12.00;;;2.33;;
57087;SDS011;42965;52.846;6.614;2022-12-29T10:40:57;13.48;;;3.08;;
57087;SDS011;42965;52.846;6.614;2022-12-29T10:43:32;10.75;;;2.47;;
57087;SDS011;42965;52.846;6.614;2022-12-29T10:46:16;13.73;;;3.45;;
57087;SDS011;42965;52.846;6.614;2022-12-29T10:48:46;9.27;;;2.10;;
57087;SDS011;42965;52.846;6.614;2022-12-29T10:51:56;12.52;;;2.70;;
57087;SDS011;42965;52.846;6.614;2022-12-29T10:54:05;8.68;;;2.42;;
57087;SDS011;42965;52.846;6.614;2022-12-29T10:59:22;12.82;;;3.45;;
57087;SDS011;42965;52.846;6.614;2022-12-29T11:02:05;11.55;;;2.88;;
57087;SDS011;42965;52.846;6.614;2022-12-29T11:05:02;13.48;;;3.22;;
57087;SDS011;42965;52.846;6.614;2022-12-29T11:07:42;11.02;;;2.78;;
57087;SDS011;42965;52.846;6.614;2022-12-29T11:10:19;11.73;;;2.65;;
57087;SDS011;42965;52.846;6.614;2022-12-29T11:13:04;13.00;;;2.78;;
57087;SDS011;42965;52.846;6.614;2022-12-29T11:15:45;10.02;;;2.80;;
57087;SDS011;42965;52.846;6.614;2022-12-29T11:20:55;11.32;;;2.47;;
57087;SDS011;42965;52.846;6.614;2022-12-29T11:23:32;5.65;;;2.45;;
57087;SDS011;42965;52.846;6.614;2022-12-29T11:29:15;8.88;;;2.78;;
57087;SDS011;42965;52.846;6.614;2022-12-29T11:31:44;11.65;;;2.80;;
57087;SDS011;42965;52.846;6.614;2022-12-29T11:34:26;14.98;;;3.50;;
57087;SDS011;42965;52.846;6.614;2022-12-29T11:37:29;15.95;;;3.40;;
57087;SDS011;42965;52.846;6.614;2022-12-29T11:39:57;13.23;;;3.15;;
57087;SDS011;42965;52.846;6.614;2022-12-29T11:45:21;13.38;;;3.60;;
57087;SDS011;42965;52.846;6.614;2022-12-29T11:47:51;14.38;;;4.25;;
57087;SDS011;42965;52.846;6.614;2022-12-29T11:50:40;16.80;;;3.35;;
57087;SDS011;42965;52.846;6.614;2022-12-29T11:53:32;12.18;;;3.30;;
57087;SDS011;42965;52.846;6.614;2022-12-29T11:56:48;13.23;;;3.45;;
57087;SDS011;42965;52.846;6.614;2022-12-29T12:05:41;14.85;;;3.30;;
57087;SDS011;42965;52.846;6.614;2022-12-29T12:08:47;19.75;;;3.45;;
57087;SDS011;42965;52.846;6.614;2022-12-29T12:11:39;15.98;;;3.90;;
57087;SDS011;42965;52.846;6.614;2022-12-29T12:14:45;18.17;;;3.67;;
57087;SDS011;42965;52.846;6.614;2022-12-29T12:18:05;14.13;;;2.95;;
57087;SDS011;42965;52.846;6.614;2022-12-29T12:21:39;13.75;;;2.83;;
57087;SDS011;42965;52.846;6.614;2022-12-29T12:27:22;16.33;;;3.47;;
57087;SDS011;42965;52.846;6.614;2022-12-29T12:30:19;14.50;;;2.85;;
57087;SDS011;42965;52.846;6.614;2022-12-29T12:33:16;20.48;;;3.70;;
57087;SDS011;42965;52.846;6.614;2022-12-29T12:36:32;18.27;;;3.58;;
57087;SDS011;42965;52.846;6.614;2022-12-29T12:39:27;13.63;;;3.13;;
57087;SDS011;42965;52.846;6.614;2022-12-29T12:48:18;21.10;;;3.75;;
57087;SDS011;42965;52.846;6.614;2022-12-29T12:51:20;21.83;;;3.42;;
57087;SDS011;42965;52.846;6.614;2022-12-29T13:00:04;15.75;;;3.78;;
57087;SDS011;42965;52.846;6.614;2022-12-29T13:08:34;11.13;;;2.92;;
57087;SDS011;42965;52.846;6.614;2022-12-29T13:11:24;11.52;;;2.90;;
57087;SDS011;42965;52.846;6.614;2022-12-29T13:14:07;13.77;;;3.40;;
57087;SDS011;42965;52.846;6.614;2022-12-29T13:27:50;10.50;;;2.67;;
57087;SDS011;42965;52.846;6.614;2022-12-29T13:30:28;16.27;;;3.92;;
57087;SDS011;42965;52.846;6.614;2022-12-29T13:36:21;12.20;;;2.70;;
57087;SDS011;42965;52.846;6.614;2022-12-29T13:38:50;18.33;;;4.18;;
57087;SDS011;42965;52.846;6.614;2022-12-29T13:41:27;18.38;;;3.80;;
57087;SDS011;42965;52.846;6.614;2022-12-29T13:44:00;17.55;;;3.90;;
57087;SDS011;42965;52.846;6.614;2022-12-29T13:46:34;14.75;;;3.10;;
57087;SDS011;42965;52.846;6.614;2022-12-29T13:49:13;15.48;;;3.65;;
57087;SDS011;42965;52.846;6.614;2022-12-29T13:51:51;12.55;;;3.38;;
57087;SDS011;42965;52.846;6.614;2022-12-29T13:55:17;17.08;;;3.50;;
57087;SDS011;42965;52.846;6.614;2022-12-29T14:00:18;16.83;;;3.30;;
57087;SDS011;42965;52.846;6.614;2022-12-29T14:08:01;17.70;;;3.80;;
57087;SDS011;42965;52.846;6.614;2022-12-29T14:10:33;14.85;;;3.03;;
57087;SDS011;42965;52.846;6.614;2022-12-29T14:13:03;15.90;;;4.28;;
57087;SDS011;42965;52.846;6.614;2022-12-29T14:15:39;17.38;;;3.25;;
57087;SDS011;42965;52.846;6.614;2022-12-29T14:20:47;13.60;;;2.88;;
57087;SDS011;42965;52.846;6.614;2022-12-29T14:23:45;13.40;;;2.90;;
57087;SDS011;42965;52.846;6.614;2022-12-29T14:28:43;11.40;;;2.67;;
57087;SDS011;42965;52.846;6.614;2022-12-29T14:34:30;12.77;;;2.50;;
57087;SDS011;42965;52.846;6.614;2022-12-29T14:39:00;14.35;;;3.28;;
57087;SDS011;42965;52.846;6.614;2022-12-29T14:41:29;8.65;;;2.50;;
57087;SDS011;42965;52.846;6.614;2022-12-29T14:46:41;9.80;;;2.42;;
57087;SDS011;42965;52.846;6.614;2022-12-29T14:49:15;16.13;;;3.22;;
57087;SDS011;42965;52.846;6.614;2022-12-29T14:51:44;15.65;;;3.28;;
57087;SDS011;42965;52.846;6.614;2022-12-29T14:56:59;15.05;;;2.88;;
57087;SDS011;42965;52.846;6.614;2022-12-29T14:59:28;15.80;;;3.10;;
57087;SDS011;42965;52.846;6.614;2022-12-29T15:01:57;10.27;;;3.05;;
57087;SDS011;42965;52.846;6.614;2022-12-29T15:04:30;15.00;;;3.15;;
57087;SDS011;42965;52.846;6.614;2022-12-29T15:06:59;13.85;;;3.13;;
57087;SDS011;42965;52.846;6.614;2022-12-29T15:09:34;11.13;;;2.63;;
57087;SDS011;42965;52.846;6.614;2022-12-29T15:12:05;14.52;;;3.92;;
57087;SDS011;42965;52.846;6.614;2022-12-29T15:14:49;10.80;;;2.60;;
57087;SDS011;42965;52.846;6.614;2022-12-29T15:17:24;13.98;;;2.95;;
57087;SDS011;42965;52.846;6.614;2022-12-29T15:19:51;13.73;;;2.92;;
57087;SDS011;42965;52.846;6.614;2022-12-29T15:22:18;14.85;;;3.75;;
57087;SDS011;42965;52.846;6.614;2022-12-29T15:24:45;14.93;;;3.28;;
57087;SDS011;42965;52.846;6.614;2022-12-29T15:27:13;15.48;;;3.10;;
57087;SDS011;42965;52.846;6.614;2022-12-29T15:29:44;15.20;;;2.75;;
57087;SDS011;42965;52.846;6.614;2022-12-29T15:32:26;14.23;;;3.55;;
57087;SDS011;42965;52.846;6.614;2022-12-29T15:34:55;14.90;;;3.20;;
57087;SDS011;42965;52.846;6.614;2022-12-29T15:37:32;14.25;;;3.58;;
57087;SDS011;42965;52.846;6.614;2022-12-29T15:40:01;11.68;;;3.75;;
57087;SDS011;42965;52.846;6.614;2022-12-29T15:45:16;16.33;;;3.85;;
57087;SDS011;42965;52.846;6.614;2022-12-29T15:47:44;13.20;;;3.20;;
57087;SDS011;42965;52.846;6.614;2022-12-29T15:50:26;12.48;;;3.90;;
57087;SDS011;42965;52.846;6.614;2022-12-29T15:52:53;13.05;;;2.78;;
57087;SDS011;42965;52.846;6.614;2022-12-29T15:55:30;11.70;;;2.95;;
57087;SDS011;42965;52.846;6.614;2022-12-29T15:58:02;16.88;;;3.40;;
57087;SDS011;42965;52.846;6.614;2022-12-29T16:00:34;17.40;;;2.95;;
57087;SDS011;42965;52.846;6.614;2022-12-29T16:05:37;12.43;;;3.03;;
57087;SDS011;42965;52.846;6.614;2022-12-29T16:11:21;12.68;;;4.13;;
57087;SDS011;42965;52.846;6.614;2022-12-29T16:13:52;8.88;;;3.38;;
57087;SDS011;42965;52.846;6.614;2022-12-29T16:16:21;13.00;;;3.45;;
57087;SDS011;42965;52.846;6.614;2022-12-29T16:18:53;14.88;;;4.07;;
57087;SDS011;42965;52.846;6.614;2022-12-29T16:21:33;12.35;;;2.80;;
57087;SDS011;42965;52.846;6.614;2022-12-29T16:24:05;10.23;;;3.03;;
57087;SDS011;42965;52.846;6.614;2022-12-29T16:26:34;8.98;;;2.80;;
57087;SDS011;42965;52.846;6.614;2022-12-29T16:29:01;8.93;;;2.60;;
57087;SDS011;42965;52.846;6.614;2022-12-29T16:31:33;10.90;;;2.70;;
57087;SDS011;42965;52.846;6.614;2022-12-29T16:34:21;6.03;;;2.53;;
57087;SDS011;42965;52.846;6.614;2022-12-29T16:36:54;8.93;;;2.50;;
57087;SDS011;42965;52.846;6.614;2022-12-29T16:45:09;7.55;;;2.67;;
57087;SDS011;42965;52.846;6.614;2022-12-29T16:50:34;10.00;;;2.75;;
57087;SDS011;42965;52.846;6.614;2022-12-29T16:53:03;11.60;;;2.47;;
57087;SDS011;42965;52.846;6.614;2022-12-29T16:55:30;5.75;;;2.75;;
57087;SDS011;42965;52.846;6.614;2022-12-29T16:57:57;6.43;;;2.88;;
57087;SDS011;42965;52.846;6.614;2022-12-29T17:00:26;9.32;;;2.83;;
57087;SDS011;42965;52.846;6.614;2022-12-29T17:02:56;9.65;;;3.75;;
57087;SDS011;42965;52.846;6.614;2022-12-29T17:05:24;10.57;;;3.08;;
57087;SDS011;42965;52.846;6.614;2022-12-29T17:07:51;2.55;;;1.05;;
57087;SDS011;42965;52.846;6.614;2022-12-29T17:10:18;3.30;;;1.55;;
57087;SDS011;42965;52.846;6.614;2022-12-29T17:12:45;6.53;;;1.60;;
57087;SDS011;42965;52.846;6.614;2022-12-29T17:17:49;7.47;;;2.42;;
57087;SDS011;42965;52.846;6.614;2022-12-29T17:20:22;11.75;;;2.65;;
57087;SDS011;42965;52.846;6.614;2022-12-29T17:22:50;6.13;;;2.67;;
57087;SDS011;42965;52.846;6.614;2022-12-29T17:25:21;6.90;;;2.85;;
57087;SDS011;42965;52.846;6.614;2022-12-29T17:27:55;8.05;;;2.90;;
57087;SDS011;42965;52.846;6.614;2022-12-29T17:30:27;10.13;;;3.70;;
57087;SDS011;42965;52.846;6.614;2022-12-29T17:32:57;10.90;;;4.03;;
57087;SDS011;42965;52.846;6.614;2022-12-29T17:37:53;13.38;;;5.88;;
57087;SDS011;42965;52.846;6.614;2022-12-29T17:42:49;13.75;;;5.90;;
57087;SDS011;42965;52.846;6.614;2022-12-29T17:45:19;12.65;;;6.47;;
57087;SDS011;42965;52.846;6.614;2022-12-29T17:47:49;22.33;;;7.25;;
57087;SDS011;42965;52.846;6.614;2022-12-29T17:50:17;21.70;;;6.90;;
57087;SDS011;42965;52.846;6.614;2022-12-29T17:53:00;17.50;;;5.90;;
57087;SDS011;42965;52.846;6.614;2022-12-29T17:55:31;14.75;;;5.60;;
57087;SDS011;42965;52.846;6.614;2022-12-29T17:57:58;14.25;;;5.07;;
57087;SDS011;42965;52.846;6.614;2022-12-29T18:00:26;9.73;;;5.40;;
57087;SDS011;42965;52.846;6.614;2022-12-29T18:02:55;14.05;;;5.68;;
57087;SDS011;42965;52.846;6.614;2022-12-29T18:07:51;19.30;;;6.25;;
57087;SDS011;42965;52.846;6.614;2022-12-29T18:10:19;13.82;;;6.45;;
57087;SDS011;42965;52.846;6.614;2022-12-29T18:12:50;17.67;;;5.68;;